createdAt,value
2023-04-03T00:02:48.554Z,64.71
2023-04-03T00:07:51.814Z,64.97
2023-04-03T00:12:55.027Z,64.42
2023-04-03T00:17:58.250Z,64.67
2023-04-03T00:23:02.410Z,64.59
2023-04-03T00:28:06.287Z,64.14
2023-04-03T00:33:12.939Z,64.45
2023-04-03T00:38:16.514Z,64.59
2023-04-03T00:43:27.429Z,64.35
2023-04-03T00:48:46.014Z,64.89
2023-04-03T00:54:00.839Z,65.13
2023-04-03T00:59:16.317Z,64.60
2023-04-03T01:04:32.191Z,64.74
2023-04-03T01:09:36.237Z,64.23
2023-04-03T01:14:39.337Z,63.61
2023-04-03T01:19:48.444Z,63.44
2023-04-03T01:24:54.300Z,62.66
2023-04-03T01:29:57.970Z,62.35
2023-04-03T01:35:00.866Z,63.17
2023-04-03T01:40:05.381Z,63.39
2023-04-03T01:45:09.100Z,64.24
2023-04-03T01:50:12.040Z,64.37
2023-04-03T01:55:14.837Z,63.76
2023-04-03T02:00:18.091Z,63.95
2023-04-03T02:05:21.137Z,64.26
2023-04-03T02:10:24.200Z,64.91
2023-04-03T02:15:27.210Z,65.23
2023-04-03T02:20:30.629Z,65.75
2023-04-03T02:25:36.085Z,65.67
2023-04-03T02:30:40.405Z,65.26
2023-04-03T02:35:43.541Z,65.32
2023-04-03T02:40:46.491Z,65.71
2023-04-03T02:45:49.763Z,66.64
2023-04-03T02:50:53.242Z,66.19
2023-04-03T02:55:56.382Z,65.31
2023-04-03T03:00:59.537Z,64.24
2023-04-03T03:06:03.993Z,63.50
2023-04-03T03:11:07.366Z,63.62
2023-04-03T03:16:10.777Z,64.12
2023-04-03T03:21:13.976Z,64.40
2023-04-03T03:26:17.498Z,65.10
2023-04-03T03:31:20.679Z,66.54
2023-04-03T03:36:23.769Z,67.47
2023-04-03T03:41:27.191Z,68.39
2023-04-03T03:46:30.320Z,68.87
2023-04-03T03:51:33.335Z,68.80
2023-04-03T03:56:36.668Z,68.91
2023-04-03T04:01:40.727Z,69.49
2023-04-03T04:06:43.779Z,68.83
2023-04-03T04:11:46.685Z,68.30
2023-04-03T04:16:50.229Z,68.69
2023-04-03T04:21:53.069Z,68.91
2023-04-03T04:26:56.536Z,69.09
2023-04-03T04:31:59.672Z,69.39
2023-04-03T04:37:02.784Z,69.53
2023-04-03T04:42:06.111Z,69.34
2023-04-03T04:47:09.112Z,69.64
2023-04-03T04:52:12.578Z,69.44
2023-04-03T04:57:16.675Z,69.55
2023-04-03T05:02:19.840Z,69.00
2023-04-03T05:07:23.038Z,69.24
2023-04-03T05:12:26.091Z,68.59
2023-04-03T05:17:29.211Z,68.81
2023-04-03T05:22:32.442Z,68.34
2023-04-03T05:27:36.113Z,68.12
2023-04-03T05:32:39.133Z,68.68
2023-04-03T05:37:42.322Z,69.23
2023-04-03T05:42:45.617Z,69.13
2023-04-03T05:47:48.672Z,68.65
2023-04-03T05:52:53.938Z,67.64
2023-04-03T05:57:57.614Z,66.62
2023-04-03T06:03:01.096Z,66.11
2023-04-03T06:08:04.395Z,65.23
2023-04-03T06:13:08.169Z,64.24
2023-04-03T06:18:11.735Z,63.55
2023-04-03T06:23:15.697Z,61.23
2023-04-03T06:28:20.294Z,60.06
2023-04-03T06:33:23.250Z,59.98
2023-04-03T06:38:26.101Z,58.88
2023-04-03T06:43:29.058Z,57.83
2023-04-03T06:48:32.473Z,57.64
2023-04-03T06:53:35.606Z,57.24
2023-04-03T06:58:38.612Z,56.64
2023-04-03T07:03:42.216Z,56.29
2023-04-03T07:08:46.759Z,55.64
2023-04-03T07:13:50.148Z,54.56
2023-04-03T07:18:53.411Z,54.41
2023-04-03T07:23:56.591Z,53.53
2023-04-03T07:29:00.701Z,52.99
2023-04-03T07:34:04.370Z,53.42
2023-04-03T07:39:08.205Z,53.61
2023-04-03T07:44:11.973Z,52.52
2023-04-03T07:49:15.461Z,49.82
2023-04-03T07:54:18.436Z,50.52
2023-04-03T07:59:21.508Z,47.75
2023-04-03T08:04:25.044Z,47.41
2023-04-03T08:09:28.181Z,45.61
2023-04-03T08:14:35.657Z,46.67
2023-04-03T08:19:42.279Z,46.26
2023-04-03T08:24:56.201Z,46.36
2023-04-03T08:29:59.422Z,45.85
2023-04-03T08:35:02.791Z,43.63
2023-04-03T08:40:16.070Z,43.12
2023-04-03T08:45:46.499Z,40.60
2023-04-03T08:50:58.759Z,39.65
2023-04-03T08:56:08.760Z,39.98
2023-04-03T09:01:41.992Z,37.58
2023-04-03T09:07:01.088Z,38.92
2023-04-03T09:12:18.345Z,39.24
2023-04-03T09:17:39.350Z,36.94
2023-04-03T09:22:49.607Z,37.50
2023-04-03T09:27:55.008Z,38.89
2023-04-03T09:32:59.166Z,39.63
2023-04-03T09:38:21.581Z,39.37
2023-04-03T09:43:32.919Z,39.86
2023-04-03T09:48:36.100Z,38.92
2023-04-03T09:53:43.733Z,39.36
2023-04-03T09:59:14.575Z,39.37
2023-04-03T10:04:20.094Z,39.85
2023-04-03T10:09:33.998Z,39.67
2023-04-03T10:14:58.945Z,40.30
2023-04-03T10:20:44.523Z,40.63
2023-04-03T10:26:26.654Z,35.95
2023-04-03T10:31:43.711Z,37.95
2023-04-03T10:37:17.492Z,39.25
2023-04-03T10:42:27.596Z,38.98
2023-04-03T10:47:56.157Z,39.63
2023-04-03T10:53:18.840Z,39.88
2023-04-03T10:58:46.295Z,40.73
2023-04-03T11:04:04.956Z,40.82
2023-04-03T11:09:34.600Z,40.12
2023-04-03T11:14:39.301Z,41.06
2023-04-03T11:20:19.526Z,41.37
2023-04-03T11:25:26.336Z,41.44
2023-04-03T11:31:31.148Z,41.36
2023-04-03T11:36:48.954Z,41.12
2023-04-03T11:42:00.239Z,41.51
2023-04-03T11:47:13.339Z,41.39
2023-04-03T11:53:16.719Z,40.70
2023-04-03T11:58:29.469Z,40.81
2023-04-03T12:04:07.648Z,40.64
2023-04-03T12:09:31.916Z,41.27
2023-04-03T12:14:42.834Z,40.19
2023-04-03T12:19:48.175Z,40.31
2023-04-03T12:24:53.655Z,39.95
2023-04-03T12:30:06.362Z,40.39
2023-04-03T12:35:24.284Z,41.03
2023-04-03T12:40:48.413Z,40.54
2023-04-03T12:46:01.727Z,39.22
2023-04-03T12:51:06.394Z,39.31
2023-04-03T12:56:33.830Z,40.18
2023-04-03T13:01:36.916Z,39.63
2023-04-03T13:06:43.748Z,41.01
2023-04-03T13:11:47.264Z,39.77
2023-04-03T13:17:22.358Z,38.95
2023-04-03T13:22:40.467Z,38.59
2023-04-03T13:27:45.206Z,38.82
2023-04-03T13:32:48.825Z,38.22
2023-04-03T13:38:19.854Z,37.68
2023-04-03T13:43:27.201Z,37.61
2023-04-03T13:48:48.005Z,37.71
2023-04-03T13:54:35.633Z,39.19
2023-04-03T13:59:38.802Z,39.01
2023-04-03T14:04:44.985Z,39.54
2023-04-03T14:09:49.550Z,39.32
2023-04-03T14:14:54.326Z,39.88
2023-04-03T14:19:58.829Z,40.40
2023-04-03T14:25:02.536Z,40.68
2023-04-03T14:30:15.484Z,38.83
2023-04-03T14:35:20.391Z,39.99
2023-04-03T14:40:28.463Z,40.02
2023-04-03T14:45:31.458Z,40.59
2023-04-03T14:50:34.376Z,39.73
2023-04-03T14:55:39.886Z,39.63
2023-04-03T15:00:43.083Z,39.96
2023-04-03T15:05:48.889Z,40.28
2023-04-03T15:10:53.997Z,40.51
2023-04-03T15:15:57.242Z,40.84
2023-04-03T15:21:00.248Z,40.60
2023-04-03T15:26:03.806Z,42.11
2023-04-03T15:31:08.064Z,41.95
2023-04-03T15:36:22.995Z,41.30
2023-04-03T15:41:34.830Z,42.68
2023-04-03T15:46:38.404Z,42.73
2023-04-03T15:51:42.345Z,42.70
2023-04-03T15:56:46.335Z,42.58
2023-04-03T16:01:51.249Z,41.90
2023-04-03T16:06:54.501Z,41.49
2023-04-03T16:11:57.482Z,42.19
2023-04-03T16:17:01.358Z,42.16
2023-04-03T16:22:04.392Z,42.94
2023-04-03T16:27:07.737Z,42.62
2023-04-03T16:32:13.908Z,43.41
2023-04-03T16:37:17.700Z,43.20
2023-04-03T16:42:21.364Z,43.01
2023-04-03T16:47:24.260Z,43.91
2023-04-03T16:52:27.219Z,44.21
2023-04-03T16:57:30.173Z,44.09
2023-04-03T17:02:33.299Z,43.60
2023-04-03T17:07:36.344Z,44.38
2023-04-03T17:12:39.281Z,43.86
2023-04-03T17:17:42.590Z,44.31
2023-04-03T17:22:45.696Z,44.87
2023-04-03T17:27:48.920Z,44.57
2023-04-03T17:32:52.014Z,44.51
2023-04-03T17:37:55.121Z,44.43
2023-04-03T17:42:58.582Z,44.28
2023-04-03T17:48:01.595Z,44.28
2023-04-03T17:53:04.489Z,44.19
2023-04-03T17:58:07.560Z,43.68
2023-04-03T18:03:10.768Z,44.11
2023-04-03T18:08:13.723Z,44.58
2023-04-03T18:13:17.280Z,43.88
2023-04-03T18:18:20.455Z,44.13
2023-04-03T18:23:25.420Z,44.47
2023-04-03T18:28:31.574Z,45.42
2023-04-03T18:33:34.658Z,45.63
2023-04-03T18:38:37.704Z,45.48
2023-04-03T18:43:41.205Z,44.75
2023-04-03T18:48:46.001Z,44.80
2023-04-03T18:53:48.926Z,44.63
2023-04-03T18:58:52.445Z,45.07
2023-04-03T19:03:55.528Z,45.37
2023-04-03T19:08:59.695Z,44.60
2023-04-03T19:14:15.318Z,44.57
2023-04-03T19:19:19.916Z,41.89
2023-04-03T19:24:22.952Z,41.42
2023-04-03T19:29:26.043Z,41.76
2023-04-03T19:34:29.104Z,40.99
2023-04-03T19:39:35.286Z,41.24
2023-04-03T19:44:39.324Z,41.19
2023-04-03T19:49:42.969Z,40.81
2023-04-03T19:54:45.942Z,41.57
2023-04-03T19:59:48.948Z,41.55
2023-04-03T20:04:51.983Z,42.21
2023-04-03T20:09:55.637Z,42.63
2023-04-03T20:15:00.043Z,43.13
2023-04-03T20:20:04.573Z,43.41
2023-04-03T20:25:15.359Z,43.74
2023-04-03T20:30:21.970Z,43.71
2023-04-03T20:35:25.219Z,43.37
2023-04-03T20:40:28.232Z,41.93
2023-04-03T20:45:32.201Z,41.74
2023-04-03T20:50:36.142Z,41.55
2023-04-03T20:55:39.244Z,41.80
2023-04-03T21:00:42.440Z,42.62
2023-04-03T21:05:48.300Z,43.02
2023-04-03T21:11:47.667Z,43.33
2023-04-03T21:16:50.438Z,43.08
2023-04-03T21:21:55.083Z,43.06
2023-04-03T21:26:58.092Z,42.92
2023-04-03T21:32:01.992Z,43.73
2023-04-03T21:37:08.742Z,42.80
2023-04-03T21:42:12.880Z,43.13
2023-04-03T21:47:16.878Z,43.20
2023-04-03T21:52:19.775Z,43.20
2023-04-03T21:57:23.808Z,43.78
2023-04-03T22:02:27.167Z,43.40
2023-04-03T22:07:30.096Z,43.94
2023-04-03T22:12:33.025Z,44.26
2023-04-03T22:17:35.977Z,43.84
2023-04-03T22:22:38.912Z,44.91
2023-04-03T22:27:41.960Z,44.77
2023-04-03T22:32:44.872Z,44.89
2023-04-03T22:37:48.326Z,44.75
2023-04-03T22:42:51.254Z,45.40
2023-04-03T22:47:58.662Z,45.50
2023-04-03T22:53:01.407Z,46.32
2023-04-03T22:58:04.971Z,47.46
2023-04-03T23:03:09.475Z,48.08
2023-04-03T23:08:12.706Z,48.45
2023-04-03T23:13:15.597Z,49.14
2023-04-03T23:18:18.483Z,49.64
2023-04-03T23:23:25.258Z,50.35
2023-04-03T23:28:29.428Z,50.96
2023-04-03T23:33:33.334Z,51.35
2023-04-03T23:38:36.944Z,51.20
2023-04-03T23:43:41.520Z,51.15
2023-04-03T23:48:45.282Z,51.05
2023-04-03T23:53:49.223Z,51.58
2023-04-03T23:58:52.203Z,51.86
